sensor_id;sensor_type;location;lat;lon;timestamp;pressure;altitude;pressure_sealevel;temperature;humidity
75409;BME280;63979;55.644;37.734;2023-03-01T00:03:02;99349.72;;;-4.19;51.93
75409;BME280;63979;55.644;37.734;2023-03-01T00:08:03;99414.31;;;-3.85;52.41
75409;BME280;63979;55.644;37.734;2023-03-01T00:13:04;99416.09;;;-3.87;52.38
75409;BME280;63979;55.644;37.734;2023-03-01T00:18:05;99413.66;;;-3.98;52.86
75409;BME280;63979;55.644;37.734;2023-03-01T00:23:06;99415.50;;;-4.03;52.27
75409;BME280;63979;55.644;37.734;2023-03-01T00:28:07;99408.53;;;-4.02;52.71
75409;BME280;63979;55.644;37.734;2023-03-01T00:33:08;99409.56;;;-4.11;52.25
75409;BME280;63979;55.644;37.734;2023-03-01T00:38:10;99399.19;;;-4.14;52.30
75409;BME280;63979;55.644;37.734;2023-03-01T00:43:11;99394.88;;;-4.18;51.95
75409;BME280;63979;55.644;37.734;2023-03-01T00:48:12;99385.50;;;-4.28;51.54
75409;BME280;63979;55.644;37.734;2023-03-01T00:53:14;99357.22;;;-4.50;52.15
75409;BME280;63979;55.644;37.734;2023-03-01T00:58:15;99397.50;;;-4.18;52.51
75409;BME280;63979;55.644;37.734;2023-03-01T01:03:15;99408.00;;;-4.24;53.10
75409;BME280;63979;55.644;37.734;2023-03-01T01:08:17;99408.00;;;-4.24;52.89
75409;BME280;63979;55.644;37.734;2023-03-01T01:13:18;99399.34;;;-4.25;52.88
75409;BME280;63979;55.644;37.734;2023-03-01T01:18:19;99341.00;;;-4.68;53.59
75409;BME280;63979;55.644;37.734;2023-03-01T01:23:20;99380.63;;;-4.48;52.84
75409;BME280;63979;55.644;37.734;2023-03-01T01:28:21;99408.16;;;-4.33;53.12
75409;BME280;63979;55.644;37.734;2023-03-01T01:33:22;99398.56;;;-4.31;53.45
75409;BME280;63979;55.644;37.734;2023-03-01T01:38:23;99394.31;;;-4.37;52.86
75409;BME280;63979;55.644;37.734;2023-03-01T01:43:27;99398.69;;;-4.37;53.42
75409;BME280;63979;55.644;37.734;2023-03-01T01:48:37;99398.72;;;-4.41;53.86
75409;BME280;63979;55.644;37.734;2023-03-01T01:53:45;99407.50;;;-4.46;53.98
75409;BME280;63979;55.644;37.734;2023-03-01T01:58:47;99348.91;;;-4.76;54.44
75409;BME280;63979;55.644;37.734;2023-03-01T02:03:48;99384.22;;;-4.58;54.72
75409;BME280;63979;55.644;37.734;2023-03-01T02:08:51;99403.22;;;-4.52;55.33
75409;BME280;63979;55.644;37.734;2023-03-01T02:13:53;99360.75;;;-4.55;55.38
75409;BME280;63979;55.644;37.734;2023-03-01T02:18:55;99384.75;;;-4.35;55.45
75409;BME280;63979;55.644;37.734;2023-03-01T02:23:59;99391.69;;;-4.34;55.23
75409;BME280;63979;55.644;37.734;2023-03-01T02:29:03;99383.06;;;-4.39;55.38
75409;BME280;63979;55.644;37.734;2023-03-01T02:34:08;99411.84;;;-4.47;55.95
75409;BME280;63979;55.644;37.734;2023-03-01T02:39:14;99408.47;;;-4.55;55.76
75409;BME280;63979;55.644;37.734;2023-03-01T02:44:21;99329.56;;;-5.17;56.80
75409;BME280;63979;55.644;37.734;2023-03-01T02:49:28;99416.56;;;-4.75;57.03
75409;BME280;63979;55.644;37.734;2023-03-01T02:54:40;99405.41;;;-4.83;57.21
75409;BME280;63979;55.644;37.734;2023-03-01T02:59:43;99409.81;;;-4.89;57.55
75409;BME280;63979;55.644;37.734;2023-03-01T03:04:44;99410.66;;;-4.87;57.98
75409;BME280;63979;55.644;37.734;2023-03-01T03:09:45;99397.88;;;-5.04;58.13
75409;BME280;63979;55.644;37.734;2023-03-01T03:14:46;99416.88;;;-4.99;58.15
75409;BME280;63979;55.644;37.734;2023-03-01T03:19:47;99417.81;;;-5.03;57.67
75409;BME280;63979;55.644;37.734;2023-03-01T03:24:48;99424.78;;;-5.05;58.80
75409;BME280;63979;55.644;37.734;2023-03-01T03:29:49;99419.75;;;-5.19;59.48
75409;BME280;63979;55.644;37.734;2023-03-01T03:34:50;99433.63;;;-5.23;59.11
75409;BME280;63979;55.644;37.734;2023-03-01T03:39:51;99444.09;;;-5.27;59.70
75409;BME280;63979;55.644;37.734;2023-03-01T03:44:55;99439.00;;;-5.37;59.94
75409;BME280;63979;55.644;37.734;2023-03-01T03:49:56;99431.16;;;-5.34;59.92
75409;BME280;63979;55.644;37.734;2023-03-01T03:54:56;99436.38;;;-5.34;59.41
75409;BME280;63979;55.644;37.734;2023-03-01T03:59:57;99440.69;;;-5.32;59.68
75409;BME280;63979;55.644;37.734;2023-03-01T04:04:58;99422.53;;;-5.37;60.02
75409;BME280;63979;55.644;37.734;2023-03-01T04:09:59;99414.81;;;-5.43;60.17
75409;BME280;63979;55.644;37.734;2023-03-01T04:15:01;99432.09;;;-5.39;60.34
75409;BME280;63979;55.644;37.734;2023-03-01T04:20:15;99440.69;;;-5.32;60.18
75409;BME280;63979;55.644;37.734;2023-03-01T04:25:25;99451.09;;;-5.32;60.37
75409;BME280;63979;55.644;37.734;2023-03-01T04:30:27;99450.16;;;-5.27;60.08
75409;BME280;63979;55.644;37.734;2023-03-01T04:35:28;99448.28;;;-5.11;59.90
75409;BME280;63979;55.644;37.734;2023-03-01T04:40:30;99453.22;;;-4.93;59.72
75409;BME280;63979;55.644;37.734;2023-03-01T04:45:32;99441.78;;;-4.77;59.54
75409;BME280;63979;55.644;37.734;2023-03-01T04:50:35;99462.59;;;-4.14;57.51
75409;BME280;63979;55.644;37.734;2023-03-01T04:55:36;99449.72;;;-3.23;54.55
75409;BME280;63979;55.644;37.734;2023-03-01T05:00:37;99460.44;;;-2.52;52.61
75409;BME280;63979;55.644;37.734;2023-03-01T05:05:38;99475.63;;;-1.56;50.08
75409;BME280;63979;55.644;37.734;2023-03-01T05:10:39;99475.75;;;-1.27;49.40
75409;BME280;63979;55.644;37.734;2023-03-01T05:15:41;99473.63;;;-1.12;48.38
75409;BME280;63979;55.644;37.734;2023-03-01T05:20:43;99481.19;;;-0.41;46.86
75409;BME280;63979;55.644;37.734;2023-03-01T05:25:45;99481.28;;;-0.44;46.61
75409;BME280;63979;55.644;37.734;2023-03-01T05:30:46;99482.34;;;1.59;43.25
75409;BME280;63979;55.644;37.734;2023-03-01T05:35:48;99494.72;;;2.88;39.41
75409;BME280;63979;55.644;37.734;2023-03-01T05:40:49;99494.97;;;3.80;37.06
75409;BME280;63979;55.644;37.734;2023-03-01T05:45:50;99503.34;;;2.05;39.29
75409;BME280;63979;55.644;37.734;2023-03-01T05:50:51;99511.69;;;0.98;42.77
75409;BME280;63979;55.644;37.734;2023-03-01T05:55:52;99503.75;;;0.22;44.79
75409;BME280;63979;55.644;37.734;2023-03-01T06:00:54;99513.28;;;-0.32;45.65
75409;BME280;63979;55.644;37.734;2023-03-01T06:05:58;99475.59;;;-1.20;47.03
75409;BME280;63979;55.644;37.734;2023-03-01T06:10:59;99525.94;;;-1.11;47.89
75409;BME280;63979;55.644;37.734;2023-03-01T06:16:00;99533.06;;;-1.16;48.90
75409;BME280;63979;55.644;37.734;2023-03-01T06:21:01;99513.34;;;-1.29;47.91
75409;BME280;63979;55.644;37.734;2023-03-01T06:26:07;99533.09;;;-1.17;49.25
75409;BME280;63979;55.644;37.734;2023-03-01T06:31:08;99494.03;;;-1.25;48.02
75409;BME280;63979;55.644;37.734;2023-03-01T06:36:09;99530.97;;;-1.02;48.58
75409;BME280;63979;55.644;37.734;2023-03-01T06:41:10;99535.97;;;0.53;45.25
75409;BME280;63979;55.644;37.734;2023-03-01T06:46:11;99528.41;;;2.15;40.36
75409;BME280;63979;55.644;37.734;2023-03-01T06:51:12;99541.91;;;2.52;39.72
75409;BME280;63979;55.644;37.734;2023-03-01T06:56:13;99534.50;;;3.42;37.03
75409;BME280;63979;55.644;37.734;2023-03-01T07:01:14;99512.28;;;3.87;35.48
75409;BME280;63979;55.644;37.734;2023-03-01T07:06:15;99546.44;;;8.53;28.85
75409;BME280;63979;55.644;37.734;2023-03-01T07:11:16;99548.03;;;9.75;26.81
75409;BME280;63979;55.644;37.734;2023-03-01T07:16:17;99544.06;;;11.62;24.71
75409;BME280;63979;55.644;37.734;2023-03-01T07:21:18;99554.41;;;13.10;21.59
75409;BME280;63979;55.644;37.734;2023-03-01T07:26:19;99560.88;;;16.08;19.93
75409;BME280;63979;55.644;37.734;2023-03-01T07:31:20;99567.53;;;16.78;20.02
75409;BME280;63979;55.644;37.734;2023-03-01T07:36:21;99552.94;;;16.43;19.67
75409;BME280;63979;55.644;37.734;2023-03-01T07:41:22;99551.22;;;18.88;17.21
75409;BME280;63979;55.644;37.734;2023-03-01T07:46:23;99564.94;;;20.41;16.57
75409;BME280;63979;55.644;37.734;2023-03-01T07:51:24;99565.84;;;20.73;15.16
75409;BME280;63979;55.644;37.734;2023-03-01T07:56:25;99565.28;;;22.67;14.99
75409;BME280;63979;55.644;37.734;2023-03-01T08:01:26;99565.28;;;22.96;12.47
75409;BME280;63979;55.644;37.734;2023-03-01T08:06:27;99568.50;;;22.56;13.16
75409;BME280;63979;55.644;37.734;2023-03-01T08:11:28;99567.31;;;21.68;14.33
75409;BME280;63979;55.644;37.734;2023-03-01T08:16:29;99569.69;;;22.24;14.17
75409;BME280;63979;55.644;37.734;2023-03-01T08:21:30;99567.53;;;22.34;13.39
75409;BME280;63979;55.644;37.734;2023-03-01T08:26:31;99578.53;;;21.42;13.54
75409;BME280;63979;55.644;37.734;2023-03-01T08:31:38;99588.94;;;21.99;13.51
75409;BME280;63979;55.644;37.734;2023-03-01T08:36:42;99575.50;;;22.65;13.19
75409;BME280;63979;55.644;37.734;2023-03-01T08:41:44;99582.06;;;21.51;13.35
75409;BME280;63979;55.644;37.734;2023-03-01T08:46:45;99588.09;;;23.53;12.86
75409;BME280;63979;55.644;37.734;2023-03-01T08:51:47;99595.03;;;24.26;12.07
75409;BME280;63979;55.644;37.734;2023-03-01T08:56:48;99509.13;;;24.09;12.07
75409;BME280;63979;55.644;37.734;2023-03-01T09:01:49;99597.19;;;23.24;12.15
75409;BME280;63979;55.644;37.734;2023-03-01T09:06:50;99608.81;;;22.00;12.59
75409;BME280;63979;55.644;37.734;2023-03-01T09:11:51;99614.03;;;24.13;11.72
75409;BME280;63979;55.644;37.734;2023-03-01T09:16:52;99605.69;;;25.18;11.63
75409;BME280;63979;55.644;37.734;2023-03-01T09:21:54;99608.66;;;25.23;11.51
75409;BME280;63979;55.644;37.734;2023-03-01T09:26:56;99610.22;;;25.59;11.94
75409;BME280;63979;55.644;37.734;2023-03-01T09:31:57;99586.94;;;25.89;10.68
75409;BME280;63979;55.644;37.734;2023-03-01T09:36:59;99609.69;;;25.15;10.83
75409;BME280;63979;55.644;37.734;2023-03-01T09:42:03;99586.53;;;24.64;10.75
75409;BME280;63979;55.644;37.734;2023-03-01T09:47:05;99593.72;;;22.35;12.62
75409;BME280;63979;55.644;37.734;2023-03-01T09:57:41;99594.72;;;25.72;10.32
75409;BME280;63979;55.644;37.734;2023-03-01T10:02:48;99598.19;;;24.92;11.61
75409;BME280;63979;55.644;37.734;2023-03-01T10:13:23;99627.88;;;14.34;18.29
75409;BME280;63979;55.644;37.734;2023-03-01T10:18:28;99633.09;;;10.79;23.82
75409;BME280;63979;55.644;37.734;2023-03-01T10:23:35;99637.66;;;9.50;25.37
75409;BME280;63979;55.644;37.734;2023-03-01T10:33:59;99640.69;;;8.21;28.27
75409;BME280;63979;55.644;37.734;2023-03-01T10:39:12;99657.22;;;7.67;30.18
75409;BME280;63979;55.644;37.734;2023-03-01T10:44:41;99634.69;;;5.68;32.14
75409;BME280;63979;55.644;37.734;2023-03-01T10:49:54;99652.28;;;4.62;34.38
75409;BME280;63979;55.644;37.734;2023-03-01T10:54:59;99652.25;;;4.25;35.35
75409;BME280;63979;55.644;37.734;2023-03-01T11:00:17;99645.03;;;4.47;34.30
75409;BME280;63979;55.644;37.734;2023-03-01T11:05:24;99627.97;;;5.78;32.23
75409;BME280;63979;55.644;37.734;2023-03-01T11:10:30;99621.97;;;7.19;29.78
75409;BME280;63979;55.644;37.734;2023-03-01T11:15:32;99642.78;;;8.72;26.64
75409;BME280;63979;55.644;37.734;2023-03-01T11:20:35;99647.06;;;6.51;30.15
75409;BME280;63979;55.644;37.734;2023-03-01T11:25:40;99592.13;;;4.49;33.07
75409;BME280;63979;55.644;37.734;2023-03-01T11:30:55;99622.13;;;9.30;26.63
75409;BME280;63979;55.644;37.734;2023-03-01T11:36:03;99618.31;;;12.71;21.80
75409;BME280;63979;55.644;37.734;2023-03-01T11:41:31;99626.19;;;13.70;20.44
75409;BME280;63979;55.644;37.734;2023-03-01T11:52:12;99637.28;;;9.82;24.40
75409;BME280;63979;55.644;37.734;2023-03-01T11:58:41;99632.28;;;10.02;23.85
75409;BME280;63979;55.644;37.734;2023-03-01T12:08:48;99653.22;;;6.03;31.67
75409;BME280;63979;55.644;37.734;2023-03-01T12:19:15;99655.91;;;6.67;30.46
75409;BME280;63979;55.644;37.734;2023-03-01T12:41:19;99625.69;;;3.50;35.39
75409;BME280;63979;55.644;37.734;2023-03-01T12:53:12;99635.69;;;3.62;35.05
75409;BME280;63979;55.644;37.734;2023-03-01T12:57:46;99630.94;;;2.87;36.55
75409;BME280;63979;55.644;37.734;2023-03-01T13:08:22;99633.78;;;2.59;36.30
75409;BME280;63979;55.644;37.734;2023-03-01T13:13:29;99639.16;;;2.79;37.26
75409;BME280;63979;55.644;37.734;2023-03-01T13:18:31;99591.69;;;1.66;37.44
75409;BME280;63979;55.644;37.734;2023-03-01T13:23:38;99590.91;;;1.14;39.49
75409;BME280;63979;55.644;37.734;2023-03-01T13:28:46;99636.13;;;0.97;40.38
75409;BME280;63979;55.644;37.734;2023-03-01T13:43:57;99638.91;;;0.65;43.14
75409;BME280;63979;55.644;37.734;2023-03-01T13:48:59;99634.72;;;0.59;43.07
75409;BME280;63979;55.644;37.734;2023-03-01T13:54:01;99615.34;;;0.35;43.88
75409;BME280;63979;55.644;37.734;2023-03-01T13:59:05;99613.72;;;0.02;42.88
75409;BME280;63979;55.644;37.734;2023-03-01T14:04:37;99626.41;;;-0.14;43.21
75409;BME280;63979;55.644;37.734;2023-03-01T14:09:44;99636.91;;;-0.47;44.06
75409;BME280;63979;55.644;37.734;2023-03-01T14:19:58;99586.22;;;-0.78;46.30
75409;BME280;63979;55.644;37.734;2023-03-01T14:25:21;99618.66;;;-0.50;46.00
75409;BME280;63979;55.644;37.734;2023-03-01T14:30:30;99617.69;;;-0.47;46.06
75409;BME280;63979;55.644;37.734;2023-03-01T14:35:34;99592.09;;;-0.70;45.25
75409;BME280;63979;55.644;37.734;2023-03-01T14:40:36;99593.00;;;-0.71;46.27
75409;BME280;63979;55.644;37.734;2023-03-01T14:45:38;99600.66;;;-0.96;46.21
75409;BME280;63979;55.644;37.734;2023-03-01T14:50:43;99623.22;;;-0.90;46.36
75409;BME280;63979;55.644;37.734;2023-03-01T14:55:51;99605.06;;;-0.98;47.04
75409;BME280;63979;55.644;37.734;2023-03-01T15:00:55;99607.34;;;-0.84;47.36
75409;BME280;63979;55.644;37.734;2023-03-01T15:05:58;99591.84;;;-0.93;47.69
75409;BME280;63979;55.644;37.734;2023-03-01T15:11:16;99599.09;;;-1.05;48.13
75409;BME280;63979;55.644;37.734;2023-03-01T15:16:30;99612.66;;;-0.87;48.03
75409;BME280;63979;55.644;37.734;2023-03-01T15:21:34;99618.13;;;-1.32;49.77
75409;BME280;63979;55.644;37.734;2023-03-01T15:26:42;99605.53;;;-1.53;51.54
75409;BME280;63979;55.644;37.734;2023-03-01T15:32:20;99612.16;;;-1.37;52.78
75409;BME280;63979;55.644;37.734;2023-03-01T15:37:47;99611.16;;;-1.32;52.89
75409;BME280;63979;55.644;37.734;2023-03-01T15:42:49;99567.09;;;-1.51;52.28
75409;BME280;63979;55.644;37.734;2023-03-01T15:47:52;99557.84;;;-1.65;51.98
75409;BME280;63979;55.644;37.734;2023-03-01T15:52:53;99593.56;;;-1.27;51.49
75409;BME280;63979;55.644;37.734;2023-03-01T15:58:05;99593.28;;;-1.16;51.29
75409;BME280;63979;55.644;37.734;2023-03-01T16:03:09;99598.25;;;-1.04;51.45
75409;BME280;63979;55.644;37.734;2023-03-01T16:08:11;99602.88;;;-1.15;50.22
75409;BME280;63979;55.644;37.734;2023-03-01T16:13:13;99592.69;;;-1.27;48.78
75409;BME280;63979;55.644;37.734;2023-03-01T16:18:14;99592.31;;;-1.12;48.13
75409;BME280;63979;55.644;37.734;2023-03-01T16:23:42;99604.03;;;-1.27;48.03
75409;BME280;63979;55.644;37.734;2023-03-01T16:28:46;99594.53;;;-1.31;48.50
75409;BME280;63979;55.644;37.734;2023-03-01T16:33:47;99589.53;;;-1.41;49.07
75409;BME280;63979;55.644;37.734;2023-03-01T16:38:51;99532.56;;;-1.66;50.49
75409;BME280;63979;55.644;37.734;2023-03-01T16:43:52;99602.66;;;-1.43;51.13
75409;BME280;63979;55.644;37.734;2023-03-01T16:48:53;99523.53;;;-1.90;53.00
75409;BME280;63979;55.644;37.734;2023-03-01T16:53:55;99588.78;;;-1.46;53.36
75409;BME280;63979;55.644;37.734;2023-03-01T16:58:56;99575.84;;;-1.52;51.53
75409;BME280;63979;55.644;37.734;2023-03-01T17:03:57;99568.00;;;-1.52;51.67
75409;BME280;63979;55.644;37.734;2023-03-01T17:08:58;99569.66;;;-1.48;51.43
75409;BME280;63979;55.644;37.734;2023-03-01T17:14:00;99578.28;;;-1.45;51.63
75409;BME280;63979;55.644;37.734;2023-03-01T17:19:01;99548.56;;;-1.42;51.48
75409;BME280;63979;55.644;37.734;2023-03-01T17:24:02;99558.81;;;-1.33;51.34
75409;BME280;63979;55.644;37.734;2023-03-01T17:29:04;99575.84;;;-1.52;51.28
75409;BME280;63979;55.644;37.734;2023-03-01T17:34:06;99560.16;;;-1.52;52.21
75409;BME280;63979;55.644;37.734;2023-03-01T17:39:07;99555.47;;;-1.40;52.21
75409;BME280;63979;55.644;37.734;2023-03-01T17:44:08;99542.03;;;-1.60;52.48
75409;BME280;63979;55.644;37.734;2023-03-01T17:49:09;99542.72;;;-1.53;53.30
75409;BME280;63979;55.644;37.734;2023-03-01T17:54:10;99548.03;;;-1.57;54.12
75409;BME280;63979;55.644;37.734;2023-03-01T17:59:11;99547.75;;;-1.44;53.71
75409;BME280;63979;55.644;37.734;2023-03-01T18:04:12;99536.53;;;-1.49;54.12
75409;BME280;63979;55.644;37.734;2023-03-01T18:09:13;99536.56;;;-1.51;54.54
75409;BME280;63979;55.644;37.734;2023-03-01T18:14:14;99524.47;;;-1.55;55.65
75409;BME280;63979;55.644;37.734;2023-03-01T18:19:15;99528.25;;;-1.67;56.40
75409;BME280;63979;55.644;37.734;2023-03-01T18:24:16;99537.63;;;-1.58;55.84
75409;BME280;63979;55.644;37.734;2023-03-01T18:29:17;99542.94;;;-1.61;56.03
75409;BME280;63979;55.644;37.734;2023-03-01T18:34:18;99532.63;;;-1.67;56.08
75409;BME280;63979;55.644;37.734;2023-03-01T18:39:19;99539.38;;;-1.59;55.67
75409;BME280;63979;55.644;37.734;2023-03-01T18:44:20;99538.91;;;-1.76;56.22
75409;BME280;63979;55.644;37.734;2023-03-01T18:49:21;99537.88;;;-1.69;56.62
75409;BME280;63979;55.644;37.734;2023-03-01T18:54:22;99524.56;;;-1.60;55.87
75409;BME280;63979;55.644;37.734;2023-03-01T18:59:23;99520.03;;;-1.53;55.38
75409;BME280;63979;55.644;37.734;2023-03-01T19:04:24;99518.22;;;-1.49;55.84
75409;BME280;63979;55.644;37.734;2023-03-01T19:09:26;99527.03;;;-1.53;55.47
75409;BME280;63979;55.644;37.734;2023-03-01T19:14:28;99519.81;;;-1.44;56.32
75409;BME280;63979;55.644;37.734;2023-03-01T19:19:29;99517.97;;;-1.40;56.24
75409;BME280;63979;55.644;37.734;2023-03-01T19:24:30;99514.69;;;-1.48;56.45
75409;BME280;63979;55.644;37.734;2023-03-01T19:29:32;99508.53;;;-1.46;57.03
75409;BME280;63979;55.644;37.734;2023-03-01T19:34:33;99506.69;;;-1.42;56.81
75409;BME280;63979;55.644;37.734;2023-03-01T19:39:35;99496.16;;;-1.41;56.81
75409;BME280;63979;55.644;37.734;2023-03-01T19:44:36;99489.94;;;-1.35;56.54
75409;BME280;63979;55.644;37.734;2023-03-01T19:49:38;99497.69;;;-1.31;56.54
75409;BME280;63979;55.644;37.734;2023-03-01T19:54:40;99482.59;;;-1.55;57.07
75409;BME280;63979;55.644;37.734;2023-03-01T19:59:41;99445.78;;;-1.83;57.43
75409;BME280;63979;55.644;37.734;2023-03-01T20:04:42;99484.69;;;-1.69;57.74
75409;BME280;63979;55.644;37.734;2023-03-01T20:09:43;99471.56;;;-1.68;57.85
75409;BME280;63979;55.644;37.734;2023-03-01T20:14:45;99479.28;;;-1.62;58.68
75409;BME280;63979;55.644;37.734;2023-03-01T20:19:48;99479.22;;;-1.60;58.26
75409;BME280;63979;55.644;37.734;2023-03-01T20:24:49;99485.47;;;-1.66;58.44
75409;BME280;63979;55.644;37.734;2023-03-01T20:29:50;99458.34;;;-1.62;58.52
75409;BME280;63979;55.644;37.734;2023-03-01T20:34:51;99463.53;;;-1.60;58.79
75409;BME280;63979;55.644;37.734;2023-03-01T20:39:55;99452.91;;;-1.54;58.94
75409;BME280;63979;55.644;37.734;2023-03-01T20:44:56;99454.69;;;-1.56;59.67
75409;BME280;63979;55.644;37.734;2023-03-01T20:49:57;99455.47;;;-1.52;61.22
75409;BME280;63979;55.644;37.734;2023-03-01T20:55:01;99440.38;;;-1.43;62.46
75409;BME280;63979;55.644;37.734;2023-03-01T21:00:05;99468.38;;;-1.45;63.51
75409;BME280;63979;55.644;37.734;2023-03-01T21:05:06;99460.19;;;-1.65;65.03
75409;BME280;63979;55.644;37.734;2023-03-01T21:10:09;99451.28;;;-1.58;65.30
75409;BME280;63979;55.644;37.734;2023-03-01T21:15:10;99447.28;;;-1.73;66.20
75409;BME280;63979;55.644;37.734;2023-03-01T21:20:11;99443.63;;;-2.01;67.13
75409;BME280;63979;55.644;37.734;2023-03-01T21:25:12;99459.47;;;-2.07;68.02
75409;BME280;63979;55.644;37.734;2023-03-01T21:30:13;99444.59;;;-2.05;67.28
75409;BME280;63979;55.644;37.734;2023-03-01T21:35:14;99447.38;;;-2.13;67.09
75409;BME280;63979;55.644;37.734;2023-03-01T21:40:15;99446.97;;;-1.96;66.93
75409;BME280;63979;55.644;37.734;2023-03-01T21:45:16;99449.44;;;-1.90;66.26
75409;BME280;63979;55.644;37.734;2023-03-01T21:50:17;99450.72;;;-1.71;65.90
75409;BME280;63979;55.644;37.734;2023-03-01T21:55:18;99457.53;;;-1.64;65.20
75409;BME280;63979;55.644;37.734;2023-03-01T22:00:20;99450.69;;;-1.69;64.87
75409;BME280;63979;55.644;37.734;2023-03-01T22:05:23;99448.94;;;-1.69;64.98
75409;BME280;63979;55.644;37.734;2023-03-01T22:10:24;99442.72;;;-1.65;64.69
75409;BME280;63979;55.644;37.734;2023-03-01T22:15:28;99461.03;;;-1.65;64.61
75409;BME280;63979;55.644;37.734;2023-03-01T22:20:30;99450.72;;;-1.71;65.00
75409;BME280;63979;55.644;37.734;2023-03-01T22:25:31;99449.75;;;-1.67;65.21
75409;BME280;63979;55.644;37.734;2023-03-01T22:30:32;99449.72;;;-1.65;65.18
75409;BME280;63979;55.644;37.734;2023-03-01T22:35:33;99428.88;;;-1.68;65.10
75409;BME280;63979;55.644;37.734;2023-03-01T22:40:34;99434.88;;;-1.65;64.47
75409;BME280;63979;55.644;37.734;2023-03-01T22:45:35;99461.19;;;-1.71;65.21
75409;BME280;63979;55.644;37.734;2023-03-01T22:50:36;99459.28;;;-1.64;65.87
75409;BME280;63979;55.644;37.734;2023-03-01T22:55:38;99465.94;;;-1.52;65.40
75409;BME280;63979;55.644;37.734;2023-03-01T23:00:40;99472.81;;;-1.48;65.07
75409;BME280;63979;55.644;37.734;2023-03-01T23:05:41;99465.88;;;-1.49;65.87
75409;BME280;63979;55.644;37.734;2023-03-01T23:10:41;99467.41;;;-1.42;65.45
75409;BME280;63979;55.644;37.734;2023-03-01T23:15:42;99473.59;;;-1.45;65.70
75409;BME280;63979;55.644;37.734;2023-03-01T23:20:44;99472.75;;;-1.45;65.25
75409;BME280;63979;55.644;37.734;2023-03-01T23:25:55;99498.75;;;-1.39;65.26
75409;BME280;63979;55.644;37.734;2023-03-01T23:35:59;99469.81;;;-1.33;65.45
75409;BME280;63979;55.644;37.734;2023-03-01T23:41:02;99485.63;;;-1.36;65.70
75409;BME280;63979;55.644;37.734;2023-03-01T23:46:04;99449.38;;;-1.53;65.62
75409;BME280;63979;55.644;37.734;2023-03-01T23:51:05;99466.25;;;-1.31;65.15
75409;BME280;63979;55.644;37.734;2023-03-01T23:56:08;99470.56;;;-1.28;65.20
